Time;durP1;ratioP1;P1;durP2;ratioP2;P2;SDS_P1;SDS_P2;PMS_P1;PMS_P2;Temp;Humidity;BMP_temperature;BMP_pressure;BME280_temperature;BME280_humidity;BME280_pressure;Samples;Min_cycle;Max_cycle;Signal;HPM_P1;HPM_P2
2023/10/27 00:00:39;;;;;;;16.83;5.53;;;12.50;99.90;;;;;;4974774;28;20662;-71
2023/10/27 00:03:05;;;;;;;17.57;5.77;;;12.60;99.90;;;;;;4974944;28;20187;-71
2023/10/27 00:05:31;;;;;;;19.93;5.60;;;12.60;99.90;;;;;;4975287;28;20180;-71
2023/10/27 00:07:57;;;;;;;18.90;6.50;;;12.60;99.90;;;;;;4975130;28;20211;-72
2023/10/27 00:10:24;;;;;;;18.83;5.97;;;12.60;99.90;;;;;;4974845;28;20199;-72
2023/10/27 00:12:51;;;;;;;20.30;6.00;;;12.50;99.90;;;;;;4974877;28;20587;-72
2023/10/27 00:15:17;;;;;;;13.07;4.67;;;12.50;99.90;;;;;;4974760;28;20538;-71
2023/10/27 00:17:43;;;;;;;13.10;5.00;;;12.50;99.90;;;;;;4974790;28;20187;-71
2023/10/27 00:20:09;;;;;;;17.80;5.67;;;12.50;99.90;;;;;;4974751;28;20182;-71
2023/10/27 00:22:35;;;;;;;13.70;5.43;;;12.40;99.90;;;;;;4974976;28;20201;-72
2023/10/27 00:25:04;;;;;;;15.83;4.77;;;12.50;99.90;;;;;;4974763;28;20579;-71
2023/10/27 00:27:30;;;;;;;13.37;5.40;;;12.50;99.90;;;;;;4974378;28;20176;-72
2023/10/27 00:29:55;;;;;;;13.50;5.03;;;12.50;99.90;;;;;;4973325;28;20179;-72
2023/10/27 00:32:21;;;;;;;14.57;5.17;;;12.40;99.90;;;;;;4974598;28;20238;-71
2023/10/27 00:34:47;;;;;;;15.70;5.03;;;12.40;99.90;;;;;;4974599;28;20203;-72
2023/10/27 00:37:13;;;;;;;12.93;4.87;;;12.40;99.90;;;;;;4974870;28;20183;-71
2023/10/27 00:39:39;;;;;;;16.50;6.17;;;12.40;99.90;;;;;;4974745;28;20183;-71
2023/10/27 00:42:05;;;;;;;14.20;5.33;;;12.40;99.90;;;;;;4974306;28;20628;-71
2023/10/27 00:44:31;;;;;;;14.90;6.03;;;12.50;99.90;;;;;;4974410;28;20184;-72
2023/10/27 00:46:57;;;;;;;12.87;4.90;;;12.40;99.90;;;;;;4974504;28;20187;-72
2023/10/27 00:49:24;;;;;;;15.83;5.43;;;12.50;99.90;;;;;;4974624;28;20192;-72
2023/10/27 00:51:50;;;;;;;20.67;6.27;;;12.50;99.90;;;;;;4974461;28;20207;-71
2023/10/27 00:54:17;;;;;;;14.23;5.00;;;12.50;99.90;;;;;;4974508;28;20199;-72
2023/10/27 00:56:44;;;;;;;13.50;5.17;;;12.60;99.90;;;;;;4974102;28;20168;-71
2023/10/27 00:59:12;;;;;;;12.70;4.90;;;12.60;99.90;;;;;;4974167;28;20164;-74
2023/10/27 01:01:37;;;;;;;13.50;4.13;;;12.50;99.90;;;;;;4974376;28;20582;-72
2023/10/27 01:04:03;;;;;;;13.67;4.73;;;12.50;99.90;;;;;;4974227;28;20171;-71
2023/10/27 01:06:30;;;;;;;11.43;4.47;;;12.40;99.90;;;;;;4973089;28;20271;-73
2023/10/27 01:08:55;;;;;;;13.73;4.70;;;12.40;99.90;;;;;;4974435;28;20172;-73
2023/10/27 01:11:22;;;;;;;12.40;4.53;;;12.40;99.90;;;;;;4974024;28;20615;-72
2023/10/27 01:13:53;;;;;;;11.50;4.63;;;12.40;99.90;;;;;;4974723;28;20164;-73
2023/10/27 01:16:19;;;;;;;15.43;4.47;;;12.40;99.90;;;;;;4974210;28;20314;-72
2023/10/27 01:18:45;;;;;;;11.27;4.73;;;12.50;99.90;;;;;;4974250;28;20246;-72
2023/10/27 01:21:10;;;;;;;15.80;5.03;;;12.40;99.90;;;;;;4975381;28;20179;-73
2023/10/27 01:23:36;;;;;;;8.47;4.50;;;12.40;99.90;;;;;;4977766;28;20231;-73
2023/10/27 01:26:03;;;;;;;12.93;4.63;;;12.40;99.90;;;;;;4977861;28;20178;-72
2023/10/27 01:28:29;;;;;;;15.50;4.93;;;12.30;99.90;;;;;;4977698;28;20635;-73
2023/10/27 01:30:56;;;;;;;11.60;5.23;;;12.30;99.90;;;;;;4976704;28;20223;-71
2023/10/27 01:33:22;;;;;;;9.83;4.67;;;12.40;99.90;;;;;;4977705;28;20165;-72
2023/10/27 01:35:49;;;;;;;14.70;5.17;;;12.40;99.90;;;;;;4977738;28;20660;-72
2023/10/27 01:38:14;;;;;;;15.40;5.50;;;12.50;99.90;;;;;;4977779;28;20263;-73
2023/10/27 01:40:40;;;;;;;12.00;5.03;;;12.50;99.90;;;;;;4977234;28;20207;-72
2023/10/27 01:43:06;;;;;;;10.80;5.10;;;12.60;99.90;;;;;;4976162;28;20275;-72
2023/10/27 01:45:31;;;;;;;10.50;5.53;;;12.60;99.90;;;;;;4976393;28;20172;-72
2023/10/27 01:47:57;;;;;;;12.20;5.20;;;12.70;99.90;;;;;;4977606;28;20176;-71
2023/10/27 01:50:22;;;;;;;11.63;5.50;;;12.70;99.90;;;;;;4977415;28;20211;-72
2023/10/27 01:52:48;;;;;;;10.13;5.07;;;12.80;99.90;;;;;;4977548;28;20184;-71
2023/10/27 01:55:14;;;;;;;13.33;5.47;;;12.80;99.90;;;;;;4977103;28;20203;-71
2023/10/27 01:57:39;;;;;;;9.43;5.10;;;12.70;99.90;;;;;;4976976;28;20176;-71
2023/10/27 02:00:07;;;;;;;12.73;5.23;;;12.70;99.90;;;;;;4977333;28;20223;-71
2023/10/27 02:02:34;;;;;;;14.93;5.67;;;12.60;99.90;;;;;;4977170;28;20164;-71
2023/10/27 02:05:05;;;;;;;11.60;5.73;;;12.70;99.90;;;;;;4977192;28;20168;-71
2023/10/27 02:07:31;;;;;;;13.50;5.70;;;12.70;99.90;;;;;;4977341;28;20255;-70
2023/10/27 02:10:00;;;;;;;12.63;5.03;;;12.80;99.90;;;;;;4975448;28;20263;-70
2023/10/27 02:12:29;;;;;;;12.20;5.83;;;12.80;99.90;;;;;;4977197;28;20183;-72
2023/10/27 02:14:54;;;;;;;12.03;5.30;;;12.80;99.90;;;;;;4977089;28;20164;-71
2023/10/27 02:17:20;;;;;;;15.10;5.90;;;12.80;99.90;;;;;;4977132;28;20175;-70
2023/10/27 02:19:47;;;;;;;11.40;5.40;;;12.80;99.90;;;;;;4976911;28;20252;-70
2023/10/27 02:22:13;;;;;;;16.37;5.90;;;12.90;99.90;;;;;;4977160;28;20210;-70
2023/10/27 02:24:42;;;;;;;12.60;5.97;;;12.90;99.90;;;;;;4976022;28;20310;-71
2023/10/27 02:27:08;;;;;;;13.10;6.33;;;12.80;99.90;;;;;;4976835;28;20250;-71
2023/10/27 02:29:34;;;;;;;10.50;5.43;;;12.90;99.90;;;;;;4976481;28;20632;-70
2023/10/27 02:31:59;;;;;;;10.63;5.43;;;12.90;99.90;;;;;;4974700;28;20212;-71
2023/10/27 02:34:25;;;;;;;10.03;5.27;;;12.80;99.90;;;;;;4975909;28;20591;-71
2023/10/27 02:36:51;;;;;;;9.33;5.17;;;12.80;99.90;;;;;;4976542;28;20311;-71
2023/10/27 02:39:16;;;;;;;14.20;5.77;;;12.70;99.90;;;;;;4974744;28;20183;-71
2023/10/27 02:41:42;;;;;;;12.57;5.80;;;12.60;99.90;;;;;;4975181;28;20267;-71
2023/10/27 02:44:09;;;;;;;11.27;5.67;;;12.70;99.90;;;;;;4976532;28;20172;-71
2023/10/27 02:46:35;;;;;;;8.23;5.10;;;12.70;99.90;;;;;;4976456;28;20258;-71
2023/10/27 02:49:03;;;;;;;11.70;6.00;;;12.60;99.90;;;;;;4976330;28;20171;-69
2023/10/27 02:51:28;;;;;;;12.53;5.37;;;12.60;99.90;;;;;;4976110;28;20219;-70
2023/10/27 02:53:54;;;;;;;8.57;4.50;;;12.50;99.90;;;;;;4975834;28;20707;-71
2023/10/27 02:56:20;;;;;;;9.50;4.50;;;12.40;99.90;;;;;;4976492;28;20520;-70
2023/10/27 02:58:46;;;;;;;9.70;4.23;;;12.40;99.90;;;;;;4976381;28;20184;-71
2023/10/27 03:01:15;;;;;;;8.07;3.60;;;12.40;99.90;;;;;;4976204;28;20164;-70
2023/10/27 03:03:42;;;;;;;4.83;2.80;;;12.40;99.90;;;;;;4976200;28;20234;-71
2023/10/27 03:06:08;;;;;;;6.63;3.17;;;12.30;99.90;;;;;;4976116;28;20160;-71
2023/10/27 03:08:34;;;;;;;6.50;3.00;;;12.30;99.90;;;;;;4975775;28;20254;-70
2023/10/27 03:11:00;;;;;;;9.00;3.07;;;12.20;99.90;;;;;;4975819;28;20743;-70
2023/10/27 03:13:30;;;;;;;8.43;3.07;;;12.20;99.90;;;;;;4974780;28;20194;-71
2023/10/27 03:15:58;;;;;;;7.40;2.90;;;12.20;99.90;;;;;;4975866;28;20203;-71
2023/10/27 03:18:23;;;;;;;9.73;3.27;;;12.20;99.90;;;;;;4975659;28;20175;-70
2023/10/27 03:20:56;;;;;;;7.20;2.90;;;12.30;99.90;;;;;;4975361;28;20658;-71
2023/10/27 03:23:23;;;;;;;8.53;3.17;;;12.30;99.90;;;;;;4974909;28;20160;-72
2023/10/27 03:25:49;;;;;;;5.67;3.00;;;12.40;99.90;;;;;;4975671;28;20690;-70
2023/10/27 03:28:15;;;;;;;6.97;2.80;;;12.30;99.90;;;;;;4975772;28;20176;-71
2023/10/27 03:30:42;;;;;;;7.73;2.90;;;12.30;99.90;;;;;;4975545;28;20227;-71
2023/10/27 03:33:08;;;;;;;9.17;3.50;;;12.20;99.90;;;;;;4975595;28;20169;-71
2023/10/27 03:35:34;;;;;;;8.03;3.43;;;12.10;99.90;;;;;;4974820;28;20582;-71
2023/10/27 03:38:00;;;;;;;6.53;3.17;;;12.20;99.90;;;;;;4973832;28;20183;-71
2023/10/27 03:40:26;;;;;;;10.33;3.00;;;12.10;99.90;;;;;;4975420;28;20546;-71
2023/10/27 03:42:51;;;;;;;8.53;3.07;;;12.10;99.90;;;;;;4973447;28;20230;-70
2023/10/27 03:45:17;;;;;;;9.57;3.30;;;12.20;99.90;;;;;;4974934;28;20180;-70
2023/10/27 03:47:43;;;;;;;6.33;3.50;;;12.20;99.90;;;;;;4975143;28;20175;-71
2023/10/27 03:50:08;;;;;;;8.33;3.30;;;12.30;99.90;;;;;;4975015;28;20187;-71
2023/10/27 03:52:34;;;;;;;9.03;3.27;;;12.20;99.90;;;;;;4974640;28;20660;-72
2023/10/27 03:55:00;;;;;;;5.13;3.37;;;12.30;99.90;;;;;;4974749;28;20176;-71
2023/10/27 03:57:25;;;;;;;5.87;3.47;;;12.30;99.90;;;;;;4975006;28;20183;-71
2023/10/27 03:59:51;;;;;;;10.13;3.80;;;12.30;99.90;;;;;;4974747;28;20176;-70
2023/10/27 04:02:17;;;;;;;8.00;4.00;;;12.30;99.90;;;;;;4975027;28;20176;-71
2023/10/27 04:04:42;;;;;;;9.40;4.17;;;12.30;99.90;;;;;;4974957;28;20243;-71
2023/10/27 04:07:08;;;;;;;9.50;4.07;;;12.30;99.90;;;;;;4974358;28;20207;-72
2023/10/27 04:09:34;;;;;;;9.03;4.37;;;12.30;99.90;;;;;;4974632;28;20504;-71
2023/10/27 04:11:59;;;;;;;9.10;4.20;;;12.40;99.90;;;;;;4974591;28;20254;-71
2023/10/27 04:14:25;;;;;;;10.23;4.17;;;12.30;99.90;;;;;;4974448;28;20184;-70
2023/10/27 04:16:51;;;;;;;8.70;4.20;;;12.30;99.90;;;;;;4974671;28;20670;-71
2023/10/27 04:19:17;;;;;;;9.63;4.67;;;12.20;99.90;;;;;;4974406;28;20211;-71
2023/10/27 04:21:42;;;;;;;9.70;4.33;;;12.20;99.90;;;;;;4973949;28;20248;-71
2023/10/27 04:24:08;;;;;;;10.07;4.60;;;12.30;99.90;;;;;;4974089;28;20243;-71
2023/10/27 04:26:35;;;;;;;10.23;4.73;;;12.20;99.90;;;;;;4974598;28;20215;-72
2023/10/27 04:29:01;;;;;;;9.37;4.43;;;12.20;99.90;;;;;;4974164;28;20178;-71
2023/10/27 04:31:26;;;;;;;8.47;4.47;;;12.20;99.90;;;;;;4973934;28;20309;-71
2023/10/27 04:33:52;;;;;;;6.67;4.17;;;12.20;99.90;;;;;;4973497;28;20272;-72
2023/10/27 04:36:18;;;;;;;10.40;4.30;;;12.20;99.90;;;;;;4974546;28;20179;-71
2023/10/27 04:38:44;;;;;;;6.83;3.67;;;12.30;99.90;;;;;;4972377;28;20168;-71
2023/10/27 04:41:10;;;;;;;6.60;3.53;;;12.30;99.90;;;;;;4974161;28;20179;-71
2023/10/27 04:43:36;;;;;;;4.77;3.50;;;12.40;99.90;;;;;;4974162;28;20180;-72
2023/10/27 04:46:01;;;;;;;6.40;3.30;;;12.30;99.90;;;;;;4973801;28;20175;-71
2023/10/27 04:48:27;;;;;;;6.50;3.53;;;12.20;99.90;;;;;;4973671;28;20176;-71
2023/10/27 04:50:58;;;;;;;5.07;3.37;;;12.30;99.90;;;;;;4973551;28;20259;-72
2023/10/27 04:53:24;;;;;;;4.40;3.17;;;12.30;99.90;;;;;;4973634;28;20187;-72
2023/10/27 04:55:50;;;;;;;6.07;3.30;;;12.30;99.90;;;;;;4973240;28;20254;-71
2023/10/27 04:58:17;;;;;;;5.03;3.23;;;12.20;99.90;;;;;;4973810;28;20266;-72
2023/10/27 05:00:43;;;;;;;5.93;2.87;;;12.10;99.90;;;;;;4974006;28;20259;-72
2023/10/27 05:03:09;;;;;;;5.00;3.00;;;12.10;99.90;;;;;;4972955;28;20267;-71
2023/10/27 05:05:34;;;;;;;4.10;3.07;;;12.10;99.90;;;;;;4973744;28;20582;-71
2023/10/27 05:08:00;;;;;;;7.23;3.13;;;12.10;99.90;;;;;;4973930;28;20279;-71
2023/10/27 05:10:25;;;;;;;8.43;3.50;;;12.00;99.90;;;;;;4973825;28;20652;-71
2023/10/27 05:12:51;;;;;;;6.73;3.40;;;12.00;99.90;;;;;;4974040;28;20651;-71
2023/10/27 05:15:17;;;;;;;5.20;4.30;;;12.00;99.90;;;;;;4973408;28;20215;-72
2023/10/27 05:17:42;;;;;;;7.77;4.23;;;12.00;99.90;;;;;;4973465;28;20176;-71
2023/10/27 05:20:10;;;;;;;6.83;4.57;;;12.00;99.90;;;;;;4973647;28;20191;-71
2023/10/27 05:22:36;;;;;;;6.07;4.47;;;12.00;99.90;;;;;;4973740;28;20165;-71
2023/10/27 05:25:03;;;;;;;5.53;5.03;;;12.00;99.90;;;;;;4973648;28;20231;-71
2023/10/27 05:27:29;;;;;;;7.80;5.57;;;12.00;99.90;;;;;;4973468;28;20170;-71
2023/10/27 05:29:55;;;;;;;8.97;5.70;;;12.00;99.90;;;;;;4973231;28;20196;-72
2023/10/27 05:32:20;;;;;;;13.03;6.33;;;12.10;99.90;;;;;;4973856;28;20644;-71
2023/10/27 05:34:47;;;;;;;9.73;6.90;;;12.10;99.90;;;;;;4973301;28;20264;-72
2023/10/27 05:37:13;;;;;;;8.70;6.23;;;12.10;99.90;;;;;;4973682;28;20184;-72
2023/10/27 05:39:39;;;;;;;9.80;7.43;;;12.10;99.90;;;;;;4973092;28;20525;-72
2023/10/27 05:42:04;;;;;;;10.37;6.90;;;12.10;99.90;;;;;;4972071;28;20180;-71
2023/10/27 05:44:30;;;;;;;8.43;7.00;;;12.10;99.90;;;;;;4973385;28;20208;-71
2023/10/27 05:46:58;;;;;;;11.17;7.57;;;12.20;99.90;;;;;;4971646;28;20180;-71
2023/10/27 05:49:24;;;;;;;12.40;8.17;;;12.20;99.90;;;;;;4973326;28;20175;-72
2023/10/27 05:51:50;;;;;;;10.80;8.03;;;12.20;99.90;;;;;;4972834;28;20232;-72
2023/10/27 05:54:16;;;;;;;11.30;8.63;;;12.20;99.90;;;;;;4955967;28;20176;-72
2023/10/27 05:56:41;;;;;;;12.77;8.10;;;12.30;99.90;;;;;;4973234;28;20655;-71
2023/10/27 05:59:07;;;;;;;17.57;9.40;;;12.20;99.90;;;;;;4972763;28;20191;-71
2023/10/27 06:01:33;;;;;;;13.53;9.00;;;12.10;99.90;;;;;;4971621;28;20214;-72
2023/10/27 06:03:59;;;;;;;13.00;8.80;;;12.20;99.90;;;;;;4972686;28;20183;-72
2023/10/27 06:06:25;;;;;;;12.33;9.07;;;12.20;99.90;;;;;;4972677;28;20540;-71
2023/10/27 06:08:51;;;;;;;12.57;8.70;;;12.10;99.90;;;;;;4976812;28;20164;-71
2023/10/27 06:11:16;;;;;;;11.97;8.43;;;12.10;99.90;;;;;;4976160;28;20215;-72
2023/10/27 06:13:42;;;;;;;13.47;8.97;;;12.10;99.90;;;;;;4975596;28;20582;-72
2023/10/27 06:16:08;;;;;;;10.77;8.50;;;12.10;99.90;;;;;;4976158;28;20172;-71
2023/10/27 06:18:34;;;;;;;13.00;9.00;;;12.00;99.90;;;;;;4976441;28;20222;-72
2023/10/27 06:20:59;;;;;;;10.87;8.60;;;12.00;99.90;;;;;;4976267;28;20207;-71
2023/10/27 06:23:25;;;;;;;12.73;8.53;;;12.00;99.90;;;;;;4975895;28;20298;-72
2023/10/27 06:25:51;;;;;;;14.17;9.10;;;12.00;99.90;;;;;;4974810;28;20191;-72
2023/10/27 06:28:16;;;;;;;11.13;8.97;;;12.00;99.90;;;;;;4976040;28;20466;-72
2023/10/27 06:30:42;;;;;;;11.80;8.53;;;12.00;99.90;;;;;;4973852;28;20239;-72
2023/10/27 06:33:08;;;;;;;14.27;9.50;;;12.00;99.90;;;;;;4976153;28;20183;-71
2023/10/27 06:35:33;;;;;;;11.67;9.20;;;12.00;99.90;;;;;;4974103;28;20180;-72
2023/10/27 06:37:59;;;;;;;15.40;9.97;;;12.00;99.90;;;;;;4975697;28;20180;-72
2023/10/27 06:40:25;;;;;;;11.70;10.20;;;12.10;99.90;;;;;;4975616;28;20187;-72
2023/10/27 06:42:50;;;;;;;16.03;9.80;;;12.10;99.90;;;;;;4975798;28;20663;-71
2023/10/27 06:45:16;;;;;;;17.00;10.33;;;12.10;99.90;;;;;;4975095;28;20202;-72
2023/10/27 06:47:42;;;;;;;12.40;9.37;;;12.10;99.90;;;;;;4976059;28;20655;-73
2023/10/27 06:50:08;;;;;;;14.90;9.73;;;12.20;99.90;;;;;;4975802;28;20183;-72
2023/10/27 06:52:34;;;;;;;13.47;9.53;;;12.10;99.90;;;;;;4975337;28;20322;-73
2023/10/27 06:55:00;;;;;;;17.50;9.37;;;12.20;99.90;;;;;;4975112;28;20652;-73
2023/10/27 06:57:26;;;;;;;15.93;8.80;;;12.10;99.90;;;;;;4975296;28;20175;-72
2023/10/27 06:59:55;;;;;;;13.17;9.37;;;12.10;99.90;;;;;;4975388;28;20199;-73
2023/10/27 07:02:21;;;;;;;12.17;9.30;;;12.20;99.90;;;;;;4975463;28;20173;-72
2023/10/27 07:04:46;;;;;;;13.23;8.10;;;12.20;99.90;;;;;;4975436;28;20176;-72
2023/10/27 07:07:12;;;;;;;13.13;8.40;;;12.20;99.90;;;;;;4975710;28;20235;-72
2023/10/27 07:09:38;;;;;;;11.83;8.13;;;12.20;99.90;;;;;;4975302;28;20179;-71
2023/10/27 07:12:05;;;;;;;10.23;7.20;;;12.40;99.90;;;;;;4973832;28;20547;-72
2023/10/27 07:14:30;;;;;;;13.53;7.10;;;12.40;99.90;;;;;;4974505;28;20179;-71
2023/10/27 07:16:59;;;;;;;13.33;7.00;;;12.60;99.90;;;;;;4975759;28;20627;-72
2023/10/27 07:19:25;;;;;;;9.80;6.80;;;12.80;99.90;;;;;;4974391;28;20168;-71
2023/10/27 07:21:51;;;;;;;8.53;6.30;;;13.00;99.90;;;;;;4975599;28;20168;-71
2023/10/27 07:24:16;;;;;;;11.23;5.70;;;13.00;99.90;;;;;;4974845;28;20230;-71
2023/10/27 07:26:42;;;;;;;10.37;6.07;;;13.00;99.90;;;;;;4975201;28;20282;-71
2023/10/27 07:29:08;;;;;;;9.93;5.67;;;13.10;99.90;;;;;;4974575;28;20255;-73
2023/10/27 07:31:34;;;;;;;7.13;5.10;;;13.10;99.90;;;;;;4974807;28;20291;-73
2023/10/27 07:34:02;;;;;;;7.33;4.60;;;13.20;99.90;;;;;;4975271;28;20251;-72
2023/10/27 07:36:27;;;;;;;8.20;4.80;;;13.00;99.90;;;;;;4974902;28;20180;-70
2023/10/27 07:38:53;;;;;;;12.73;5.00;;;12.90;99.90;;;;;;4974872;28;20172;-72
2023/10/27 07:41:19;;;;;;;7.97;5.00;;;13.00;99.90;;;;;;4975177;28;20190;-71
2023/10/27 07:43:44;;;;;;;8.90;4.40;;;12.90;99.90;;;;;;4974032;28;20175;-72
2023/10/27 07:46:11;;;;;;;11.57;4.93;;;12.90;99.90;;;;;;4974425;28;20180;-72
2023/10/27 07:48:37;;;;;;;9.67;4.73;;;12.80;99.90;;;;;;4975131;28;20172;-72
2023/10/27 07:51:03;;;;;;;7.77;4.37;;;12.90;99.90;;;;;;4973931;28;20671;-72
2023/10/27 07:53:29;;;;;;;8.47;4.40;;;12.90;99.90;;;;;;4974810;28;20578;-72
2023/10/27 07:55:55;;;;;;;8.23;4.50;;;12.90;99.90;;;;;;4974909;28;20183;-72
2023/10/27 07:58:23;;;;;;;6.67;4.57;;;12.90;99.90;;;;;;4974300;28;20183;-72
2023/10/27 08:00:51;;;;;;;8.03;4.73;;;13.00;99.90;;;;;;4974212;28;20255;-72
2023/10/27 08:03:17;;;;;;;13.57;5.00;;;13.10;99.90;;;;;;4974176;28;20323;-72
2023/10/27 08:05:43;;;;;;;14.57;5.33;;;13.00;99.90;;;;;;4973330;28;20267;-72
2023/10/27 08:08:09;;;;;;;11.00;5.60;;;13.00;99.90;;;;;;4974600;28;20194;-72
2023/10/27 08:10:38;;;;;;;11.97;5.77;;;13.00;99.90;;;;;;4974290;28;20211;-72
2023/10/27 08:13:05;;;;;;;12.23;6.03;;;13.00;99.90;;;;;;4974092;28;20180;-72
2023/10/27 08:15:32;;;;;;;10.93;5.90;;;13.10;99.90;;;;;;4974183;28;20168;-73
2023/10/27 08:17:57;;;;;;;9.20;5.97;;;13.20;99.90;;;;;;4972977;28;20302;-73
2023/10/27 08:20:23;;;;;;;11.90;6.27;;;13.30;99.90;;;;;;4974340;28;20262;-72
2023/10/27 08:22:49;;;;;;;10.07;6.33;;;13.40;99.90;;;;;;4974243;28;20172;-72
2023/10/27 08:25:15;;;;;;;18.87;7.40;;;13.40;99.90;;;;;;4973587;28;20223;-72
2023/10/27 08:27:40;;;;;;;11.23;7.10;;;13.30;99.90;;;;;;4973655;28;20188;-72
2023/10/27 08:30:07;;;;;;;13.57;6.93;;;13.60;99.90;;;;;;4972896;28;20203;-72
2023/10/27 08:32:32;;;;;;;13.73;7.17;;;13.70;99.90;;;;;;4973801;28;20196;-73
2023/10/27 08:34:58;;;;;;;14.53;7.87;;;13.70;99.90;;;;;;4974198;28;20743;-72
2023/10/27 08:37:25;;;;;;;12.87;7.17;;;13.60;99.90;;;;;;4974123;28;20255;-72
2023/10/27 08:39:51;;;;;;;11.20;7.50;;;13.80;99.90;;;;;;4973912;28;20194;-74
2023/10/27 08:42:18;;;;;;;17.63;7.80;;;13.80;99.90;;;;;;4973640;28;20707;-73
2023/10/27 08:44:45;;;;;;;12.93;7.93;;;13.80;99.90;;;;;;4973977;28;20210;-72
2023/10/27 08:47:12;;;;;;;14.40;7.13;;;13.90;99.90;;;;;;4973544;28;20164;-72
2023/10/27 08:49:38;;;;;;;17.67;7.90;;;13.80;99.90;;;;;;4973421;28;20191;-73
2023/10/27 08:52:04;;;;;;;14.43;7.50;;;13.80;99.90;;;;;;4973562;28;20560;-72
2023/10/27 08:54:31;;;;;;;13.83;7.87;;;13.90;99.90;;;;;;4974091;28;20184;-72
2023/10/27 08:56:56;;;;;;;16.77;7.63;;;13.90;99.90;;;;;;4973727;28;20258;-73
2023/10/27 08:59:24;;;;;;;17.40;7.70;;;14.00;99.90;;;;;;4973392;28;20176;-73
2023/10/27 09:01:49;;;;;;;11.37;7.60;;;14.10;99.90;;;;;;4973957;28;20191;-73
2023/10/27 09:04:19;;;;;;;17.13;7.93;;;14.00;99.90;;;;;;4973944;28;20176;-72
2023/10/27 09:06:45;;;;;;;13.47;7.73;;;13.90;99.90;;;;;;4973711;28;20188;-74
2023/10/27 09:09:10;;;;;;;16.20;7.53;;;14.00;99.90;;;;;;4973744;28;20230;-73
2023/10/27 09:11:41;;;;;;;14.73;8.00;;;13.80;99.90;;;;;;4973467;28;20775;-72
2023/10/27 09:14:22;;;;;;;14.87;7.50;;;13.80;99.90;;;;;;4972994;28;20175;-73
2023/10/27 09:16:49;;;;;;;16.53;7.37;;;13.80;99.90;;;;;;4973783;28;20292;-72
2023/10/27 09:19:24;;;;;;;11.40;7.50;;;13.70;99.90;;;;;;4973135;28;20196;-72
2023/10/27 09:21:52;;;;;;;10.57;6.60;;;13.60;99.90;;;;;;4973508;28;20178;-72
2023/10/27 09:24:29;;;;;;;14.50;7.17;;;13.60;99.90;;;;;;4972724;28;20612;-73
2023/10/27 09:26:57;;;;;;;12.70;5.97;;;13.70;99.90;;;;;;4973383;28;20168;-73
2023/10/27 09:29:23;;;;;;;12.37;6.60;;;13.50;99.90;;;;;;4972880;28;20212;-72
2023/10/27 09:31:50;;;;;;;11.57;6.10;;;13.50;99.90;;;;;;4973036;28;20207;-72
2023/10/27 09:34:34;;;;;;;12.27;6.57;;;13.40;99.90;;;;;;4973644;28;20168;-73
2023/10/27 09:37:00;;;;;;;11.40;6.00;;;13.30;99.90;;;;;;4973580;28;20214;-73
2023/10/27 09:39:26;;;;;;;10.10;6.20;;;13.30;99.90;;;;;;4971690;28;20306;-72
2023/10/27 09:42:03;;;;;;;9.47;5.50;;;13.30;99.90;;;;;;4972951;28;20172;-73
2023/10/27 09:44:44;;;;;;;8.80;4.93;;;13.10;99.90;;;;;;4976938;28;20206;-72
2023/10/27 09:47:45;;;;;;;12.83;5.07;;;13.10;99.90;;;;;;4975938;28;20179;-72
2023/10/27 09:50:15;;;;;;;11.00;5.30;;;13.10;99.90;;;;;;4976779;28;20258;-71
2023/10/27 09:52:44;;;;;;;12.27;4.80;;;13.00;99.90;;;;;;4976639;28;20266;-72
2023/10/27 09:55:13;;;;;;;6.53;4.53;;;13.00;99.90;;;;;;4976288;28;20175;-72
2023/10/27 09:57:42;;;;;;;6.87;4.53;;;13.00;99.90;;;;;;4976848;28;20180;-72
2023/10/27 10:00:10;;;;;;;7.87;4.70;;;13.00;99.90;;;;;;4977001;28;20270;-73
2023/10/27 10:02:36;;;;;;;7.33;4.20;;;13.10;99.90;;;;;;4976551;28;20211;-73
2023/10/27 10:05:03;;;;;;;9.07;4.57;;;13.20;99.90;;;;;;4976275;28;20191;-73
2023/10/27 10:07:32;;;;;;;9.87;4.37;;;13.20;99.90;;;;;;4975756;28;20184;-73
2023/10/27 10:10:26;;;;;;;7.90;4.43;;;13.30;99.90;;;;;;4976696;28;20179;-72
2023/10/27 10:13:00;;;;;;;8.73;4.13;;;13.40;99.90;;;;;;4973812;28;20238;-73
2023/10/27 10:15:27;;;;;;;8.07;4.07;;;13.50;99.90;;;;;;4976485;28;20174;-73
2023/10/27 10:17:53;;;;;;;11.10;4.23;;;13.60;99.90;;;;;;4975347;28;20302;-71
2023/10/27 10:20:43;;;;;;;8.67;4.03;;;13.60;99.90;;;;;;4975983;28;20255;-72
2023/10/27 10:23:09;;;;;;;7.57;3.93;;;14.00;99.90;;;;;;4972576;28;20217;-73
2023/10/27 10:25:35;;;;;;;10.47;3.70;;;14.00;99.90;;;;;;4976231;28;20522;-72
2023/10/27 10:28:10;;;;;;;9.93;4.70;;;14.30;99.90;;;;;;4976318;28;20252;-73
2023/10/27 10:30:47;;;;;;;10.43;3.90;;;14.30;99.90;;;;;;4974456;28;20358;-72
2023/10/27 10:33:24;;;;;;;7.20;4.30;;;14.30;99.90;;;;;;4976097;28;20186;-73
2023/10/27 10:35:52;;;;;;;9.50;4.67;;;14.20;99.90;;;;;;4976241;28;20692;-73
2023/10/27 10:38:23;;;;;;;8.43;4.33;;;14.20;99.90;;;;;;4976087;28;20254;-73
2023/10/27 10:40:55;;;;;;;8.03;4.10;;;14.30;99.90;;;;;;4975267;28;20630;-73
2023/10/27 10:43:30;;;;;;;12.33;4.53;;;14.30;99.90;;;;;;4975830;28;20647;-73
2023/10/27 10:45:59;;;;;;;13.43;4.77;;;14.20;99.90;;;;;;4976053;28;20171;-72
2023/10/27 10:48:33;;;;;;;10.27;4.07;;;14.20;99.90;;;;;;4975845;28;20210;-73
2023/10/27 10:51:25;;;;;;;11.67;4.20;;;14.10;99.90;;;;;;4974739;28;20611;-72
2023/10/27 10:53:53;;;;;;;6.93;3.80;;;14.10;99.90;;;;;;4974531;28;20168;-73
2023/10/27 10:56:19;;;;;;;8.53;4.00;;;13.90;99.90;;;;;;4976279;28;20208;-72
2023/10/27 10:58:44;;;;;;;8.40;3.83;;;13.90;99.90;;;;;;4974100;28;20320;-73
2023/10/27 11:01:18;;;;;;;8.80;3.50;;;14.00;99.90;;;;;;4975168;28;20184;-73
2023/10/27 11:03:49;;;;;;;9.73;3.63;;;13.90;99.90;;;;;;4975379;28;20222;-72
2023/10/27 11:06:18;;;;;;;8.23;3.80;;;14.00;99.90;;;;;;4975221;28;20267;-72
2023/10/27 11:08:45;;;;;;;7.17;3.70;;;14.20;99.90;;;;;;4975504;28;20169;-73
2023/10/27 11:11:13;;;;;;;10.97;3.57;;;14.20;99.90;;;;;;4974973;28;20215;-73
2023/10/27 11:13:45;;;;;;;9.47;3.33;;;14.20;99.90;;;;;;4975566;28;20171;-72
2023/10/27 11:16:24;;;;;;;9.07;3.87;;;14.30;99.90;;;;;;4975103;28;20187;-74
2023/10/27 11:18:57;;;;;;;7.57;3.47;;;14.30;99.90;;;;;;4974818;28;20168;-72
2023/10/27 11:21:24;;;;;;;8.73;3.77;;;14.30;99.90;;;;;;4974699;28;20195;-72
2023/10/27 11:23:51;;;;;;;11.53;3.80;;;14.30;99.90;;;;;;4973767;28;20251;-72
2023/10/27 11:26:19;;;;;;;8.97;3.87;;;14.30;99.90;;;;;;4974940;28;20686;-73
2023/10/27 11:28:45;;;;;;;6.70;3.30;;;14.30;99.90;;;;;;4974796;28;20180;-72
2023/10/27 11:31:13;;;;;;;6.13;3.40;;;14.40;99.90;;;;;;4975421;28;20220;-73
2023/10/27 11:34:01;;;;;;;7.60;3.53;;;14.60;99.90;;;;;;4974782;28;20175;-72
2023/10/27 11:36:29;;;;;;;10.00;3.40;;;14.70;99.90;;;;;;4974587;28;20648;-73
2023/10/27 11:38:55;;;;;;;10.20;3.60;;;14.90;99.90;;;;;;4974626;28;20183;-72
2023/10/27 11:41:21;;;;;;;11.37;3.70;;;14.90;99.90;;;;;;4974783;28;20164;-72
2023/10/27 11:43:46;;;;;;;8.80;3.33;;;15.10;99.90;;;;;;4975030;28;20251;-72
2023/10/27 11:46:14;;;;;;;5.57;3.30;;;15.30;99.90;;;;;;4975323;28;20632;-72
2023/10/27 11:48:41;;;;;;;10.30;3.30;;;15.40;99.90;;;;;;4974642;28;20213;-73
2023/10/27 11:51:07;;;;;;;10.73;3.40;;;15.50;99.90;;;;;;4973866;28;20251;-73
2023/10/27 11:53:36;;;;;;;9.57;3.40;;;15.60;99.90;;;;;;4974351;28;20262;-73
2023/10/27 11:56:05;;;;;;;11.03;3.30;;;15.70;99.90;;;;;;4974683;28;20238;-73
2023/10/27 11:58:31;;;;;;;8.03;3.00;;;15.80;99.90;;;;;;4974508;28;20168;-75
2023/10/27 12:00:56;;;;;;;7.27;2.73;;;16.00;99.90;;;;;;4973306;28;20183;-74
2023/10/27 12:03:22;;;;;;;9.38;2.83;;;16.00;99.90;;;;;;4973831;28;20176;-74
2023/10/27 12:05:48;;;;;;;5.70;3.05;;;16.10;99.90;;;;;;4974270;28;20648;-73
2023/10/27 12:08:13;;;;;;;10.02;2.78;;;16.40;99.90;;;;;;4974662;28;20224;-75
2023/10/27 12:10:39;;;;;;;5.68;2.38;;;16.50;99.90;;;;;;4973645;28;20222;-74
2023/10/27 12:13:06;;;;;;;4.30;2.35;;;17.10;99.90;;;;;;4974237;28;20263;-74
2023/10/27 12:15:36;;;;;;;5.43;1.80;;;17.30;99.90;;;;;;4974385;28;20214;-74
2023/10/27 12:18:04;;;;;;;5.45;1.90;;;17.10;99.90;;;;;;4974459;28;20596;-73
2023/10/27 12:20:31;;;;;;;4.67;2.30;;;17.10;99.90;;;;;;4972683;28;20183;-74
2023/10/27 12:22:57;;;;;;;6.88;2.15;;;16.80;99.90;;;;;;4974006;28;20168;-74
2023/10/27 12:25:22;;;;;;;5.25;1.77;;;16.90;99.90;;;;;;4973774;28;20259;-73
2023/10/27 12:27:48;;;;;;;2.45;1.80;;;16.90;99.90;;;;;;4974129;28;20215;-73
2023/10/27 12:30:17;;;;;;;3.47;1.70;;;16.70;99.90;;;;;;4973710;28;20188;-74
2023/10/27 12:32:42;;;;;;;3.87;1.50;;;16.20;99.90;;;;;;4973416;28;20607;-73
2023/10/27 12:35:09;;;;;;;2.90;1.77;;;16.10;99.90;;;;;;4974029;28;20180;-72
2023/10/27 12:37:35;;;;;;;7.10;1.80;;;16.10;99.90;;;;;;4973691;28;20175;-72
2023/10/27 12:40:04;;;;;;;4.33;1.43;;;15.80;99.90;;;;;;4973832;28;20179;-74